Latest Weather Observations for Sydney - Observatory Hill

IDN60801

Issued at 11:32 pm EDT Wednesday 22 February 2017 (issued every 30 minutes, with the page automatically refreshed every 10 minutes)

About weather observations | Map of weather stations | Latest weather observations for NSW | Other Formats
Station Details ID: 066062 Name: SYDNEY (OBSERVATORY HILL) Lat: -33.86 Lon: 151.21 Height: 39.0 m
Data from the previous 72 hours. | See also: Recent months at Sydney - Observatory Hill

* Apparent temperature (App Temp) for Sydney - Observatory Hill is calculated using temperature observations collected at Sydney - Observatory Hill and wind observations collected at Fort Denison, as wind observations are not currently provided for Sydney - Observatory Hill.

Date/Time
EDT
Temp
°C
App
Temp
°C
Dew
Point
°C
Rel
Hum
%
Delta-T
°C
Wind Press
QNH
hPa
Press
MSL
hPa
Rain since
9am
mm
Dir  Spd
km/h
Gust
km/h
Spd
kts
Gust
kts
22/11:30pm 22.9 21.2 16.2 66 4.1 NE 20 - 11 - 1019.1 1019.0 0.0
22/11:00pm 23.1 21.4 16.2 65 4.2 NE 20 - 11 - 1019.1 1019.0 0.0
22/10:30pm 23.2 21.4 16.0 64 4.4 NE 20 - 11 - 1019.1 1019.0 0.0
22/10:00pm 23.4 21.4 16.4 64 4.3 NNE 22 - 12 - 1019.0 1018.9 0.0
22/09:30pm 23.4 21.0 16.4 64 4.3 NE 24 - 13 - 1018.8 1018.7 0.0
22/09:00pm 23.6 21.7 16.6 65 4.3 NE 22 - 12 - 1018.6 1018.5 0.0
22/08:30pm 23.8 21.6 16.8 65 4.3 NE 24 - 13 - 1018.1 1018.0 0.0
22/08:00pm 23.9 21.7 16.9 65 4.3 NE 24 - 13 - 1017.8 1017.7 0.0
22/07:30pm 24.3 21.7 16.8 63 4.6 NE 26 - 14 - 1017.4 1017.3 0.0
22/07:00pm 24.8 21.6 16.2 58 5.3 NE 28 - 15 - 1017.3 1017.2 0.0
22/06:30pm 25.2 22.2 15.8 56 5.7 NE 26 - 14 - 1017.2 1017.1 0.0
22/06:00pm 25.5 23.0 16.1 56 5.7 NE 24 - 13 - 1017.3 1017.2 0.0
22/05:30pm 25.9 22.9 15.9 54 6.1 NE 26 - 14 - 1017.4 1017.3 0.0
22/05:00pm 26.1 23.0 15.5 52 6.4 NE 26 - 14 - 1017.4 1017.3 0.0
22/04:30pm 26.4 22.9 15.4 50 6.7 NE 28 - 15 - 1017.6 1017.5 0.0
22/04:00pm 26.1 23.2 15.2 51 6.6 NE 24 - 13 - 1017.8 1017.7 0.0
22/03:30pm 26.4 23.4 14.8 49 7.0 NE 24 - 13 - 1018.1 1018.0 0.0
22/03:00pm 26.2 23.3 14.0 47 7.2 NE 22 - 12 - 1018.6 1018.5 0.0
22/02:30pm 26.5 22.4 13.9 45 7.5 NE 28 - 15 - 1019.0 1018.9 0.0
22/02:00pm 26.8 23.2 14.2 46 7.5 NE 26 - 14 - 1019.4 1019.3 0.0
22/01:30pm 26.9 22.8 15.0 48 7.2 NE 30 - 16 - 1019.8 1019.6 0.0
22/01:00pm 27.3 24.2 15.7 49 7.1 NE 26 - 14 - 1020.1 1019.9 0.0
22/12:30pm 27.1 23.7 14.8 47 7.4 NE 26 - 14 - 1020.4 1020.2 0.0
22/12:00pm 27.2 24.2 14.9 47 7.4 NE 24 - 13 - 1020.7 1020.5 0.0
22/11:30am 26.9 24.8 15.3 49 7.1 NE 20 - 11 - 1021.1 1020.9 0.0
22/11:00am 26.6 23.7 14.0 46 7.5 NE 22 - 12 - 1021.6 1021.4 0.0
22/10:30am 26.1 23.7 13.9 47 7.2 NE 19 - 10 - 1021.7 1021.5 0.0
22/10:00am 26.6 23.7 14.0 46 7.5 NE 22 - 12 - 1021.8 1021.6 0.0
22/09:30am 26.5 24.1 14.3 47 7.3 NNE 20 - 11 - 1021.9 1021.7 0.0
22/09:00am 25.8 24.4 14.6 50 6.7 NNE 15 - 8 - 1021.8 1021.6 0.0
22/08:30am 24.3 24.3 15.2 57 5.5 NNE 9 - 5 - 1021.6 1021.4 0.0
22/08:00am 23.6 24.1 15.6 61 4.8 N 7 - 4 - 1021.3 1021.1 0.0
22/07:30am 21.8 22.7 16.1 70 3.4 N 6 - 3 - 1021.0 1020.8 0.0
22/07:00am 21.6 22.6 15.4 68 3.7 NNW 4 - 2 - 1020.7 1020.5 0.0
22/06:30am 21.6 23.0 15.4 68 3.7 NNW 2 - 1 - 1020.3 1020.1 0.0
22/06:00am 21.4 22.8 15.5 69 3.5 NNW 2 - 1 - 1020.1 1019.9 0.0
22/05:30am 21.2 22.6 15.3 69 3.5 NNW 2 - 1 - 1020.0 1019.8 0.0
22/05:00am 21.4 22.3 15.0 67 3.8 NNW 4 - 2 - 1019.9 1019.7 0.0
22/04:30am 21.9 22.9 15.3 66 3.9 N 4 - 2 - 1019.8 1019.6 0.0
22/04:00am 22.2 22.7 15.1 64 4.2 NNE 6 - 3 - 1019.8 1019.6 0.0
22/03:30am 22.4 22.7 15.0 63 4.4 NNE 7 - 4 - 1019.6 1019.5 0.0
22/03:00am 22.5 22.4 14.9 62 4.5 NNE 9 - 5 - 1019.8 1019.6 0.0
22/02:30am 22.6 21.8 15.0 62 4.5 NNE 13 - 7 - 1019.9 1019.7 0.0
22/02:00am 22.8 21.9 14.9 61 4.7 NNE 13 - 7 - 1020.2 1020.0 0.0
22/01:30am 22.8 21.6 15.1 62 4.6 NNE 15 - 8 - 1020.5 1020.3 0.0
22/01:00am 22.9 21.4 15.2 62 4.6 NNE 17 - 9 - 1020.6 1020.4 0.0
22/12:30am 22.9 20.9 15.0 61 4.7 NNE 19 - 10 - 1020.8 1020.6 0.0
22/12:00am 23.1 21.8 14.9 60 4.9 NNE 15 - 8 - 1020.9 1020.7 0.0
 
Date/Time
EDT
Temp
°C
App
Temp
°C
Dew
Point
°C
Rel
Hum
%
Delta-T
°C
Wind Press
QNH
hPa
Press
MSL
hPa
Rain since
9am
mm
Dir  Spd
km/h
Gust
km/h
Spd
kts
Gust
kts
21/11:30pm 23.2 21.5 14.7 58 5.0 NNE 17 - 9 - 1021.1 1020.9 0.0
21/11:00pm 23.3 21.6 14.8 59 5.0 NNE 17 - 9 - 1021.2 1021.0 0.0
21/10:30pm 23.4 21.7 14.7 58 5.2 NNE 17 - 9 - 1021.2 1021.0 0.0
21/10:00pm 23.6 21.3 14.6 57 5.3 NNE 20 - 11 - 1021.2 1021.0 0.0
21/09:30pm 23.8 22.1 14.8 57 5.4 NNE 17 - 9 - 1021.1 1020.9 0.0
21/09:00pm 23.8 22.1 14.8 57 5.3 NE 17 - 9 - 1021.0 1020.8 0.0
21/08:30pm 24.1 22.3 14.5 55 5.7 NE 17 - 9 - 1020.5 1020.3 0.0
21/08:00pm 24.4 23.0 13.3 50 6.4 NE 13 - 7 - 1020.0 1019.8 0.0
21/07:30pm 24.6 23.2 14.4 53 6.1 NE 15 - 8 - 1019.8 1019.6 0.0
21/07:00pm 25.0 22.5 13.5 48 6.7 NE 19 - 10 - 1019.3 1019.2 0.0
21/06:30pm 25.4 22.5 12.9 45 7.3 ENE 20 - 11 - 1018.7 1018.6 0.0
21/06:00pm 25.5 22.8 13.0 46 7.3 ENE 19 - 10 - 1018.5 1018.4 0.0
21/05:30pm 25.9 22.9 12.7 44 7.7 ENE 20 - 11 - 1018.4 1018.3 0.0
21/05:00pm 26.0 22.7 12.8 44 7.7 ESE 22 - 12 - 1018.4 1018.3 0.0
21/04:30pm 26.0 22.7 11.7 41 8.2 ESE 20 - 11 - 1018.3 1018.2 0.0
21/04:00pm 25.9 22.5 11.3 40 8.3 ESE 20 - 11 - 1018.4 1018.3 0.0
21/03:30pm 26.3 22.9 11.2 38 8.6 ESE 20 - 11 - 1018.4 1018.3 0.0
21/03:00pm 26.3 22.7 10.0 36 9.0 ESE 19 - 10 - 1018.6 1018.5 0.0
21/02:30pm 26.0 22.4 10.6 38 8.6 ESE 20 - 11 - 1018.9 1018.8 0.0
21/02:00pm 26.3 23.1 11.2 38 8.5 SE 19 - 10 - 1019.3 1019.2 0.0
21/01:30pm 26.2 23.2 10.8 38 8.7 SE 17 - 9 - 1019.6 1019.5 0.0
21/01:00pm 27.1 24.9 13.4 42 8.1 ESE 17 - 9 - 1019.6 1019.5 0.0
21/12:30pm 25.3 22.6 11.8 43 7.7 SSE 17 - 9 - 1020.0 1019.8 0.0
21/12:00pm 25.8 23.0 11.2 40 8.2 ESE 17 - 9 - 1020.4 1020.2 0.0
21/11:30am 26.5 24.8 12.5 41 8.1 ESE 13 - 7 - 1020.5 1020.3 0.0
21/11:00am 26.0 24.5 10.6 38 8.6 S 9 - 5 - 1020.7 1020.5 0.0
21/10:30am 25.0 24.1 10.8 41 7.9 WNW 6 - 3 - 1020.6 1020.4 0.0
21/10:00am 22.5 19.9 7.9 39 7.6 W 11 - 6 - 1020.6 1020.4 0.0
21/09:30am 21.4 17.9 7.3 40 7.3 WNW 15 - 8 - 1020.3 1020.1 0.0
21/09:00am 19.4 15.2 5.8 41 6.7 WNW 17 - 9 - 1019.9 1019.7 0.0
21/08:30am 18.5 14.7 5.7 43 6.3 W 15 - 8 - 1019.5 1019.4 0.0
21/08:00am 17.9 14.1 5.8 45 5.9 W 15 - 8 - 1018.9 1018.8 0.0
21/07:30am 17.4 13.4 5.0 44 5.9 W 15 - 8 - 1018.7 1018.6 0.0
21/07:00am 17.0 12.5 4.3 43 6.0 W 17 - 9 - 1018.2 1018.1 0.0
21/06:30am 17.1 12.6 4.4 43 6.0 W 17 - 9 - 1017.8 1017.7 0.0
21/06:00am 17.4 13.4 4.7 43 6.0 W 15 - 8 - 1017.6 1017.5 0.0
21/05:30am 17.6 13.6 4.9 43 6.1 W 15 - 8 - 1017.2 1017.1 0.0
21/05:00am 18.0 14.9 5.6 44 6.0 WNW 11 - 6 - 1017.0 1016.9 0.0
21/04:30am 18.5 14.6 3.2 36 7.1 W 13 - 7 - 1017.1 1017.0 0.0
21/04:00am 18.7 14.5 3.7 37 7.1 W 15 - 8 - 1017.1 1017.0 0.0
21/03:30am 19.0 16.0 4.0 37 7.1 W 9 - 5 - 1017.0 1016.9 0.0
21/03:00am 19.5 16.8 5.6 40 6.8 WSW 9 - 5 - 1016.9 1016.8 0.0
21/02:30am 19.9 18.9 10.3 54 5.2 WNW 6 - 3 - 1016.7 1016.6 0.0
21/02:00am 20.0 19.1 9.3 50 5.7 SW 4 - 2 - 1016.6 1016.5 0.0
21/01:30am 20.0 18.3 9.9 52 5.4 WSW 9 - 5 - 1016.9 1016.8 0.0
21/01:00am 20.3 19.2 10.1 52 5.5 WSW 6 - 3 - 1017.0 1016.9 0.0
21/12:30am 20.5 19.8 10.0 51 5.7 NW 4 - 2 - 1016.8 1016.7 0.0
21/12:00am 21.5 21.1 9.7 47 6.4 NNW 2 - 1 - 1016.7 1016.6 0.0
 
Date/Time
EDT
Temp
°C
App
Temp
°C
Dew
Point
°C
Rel
Hum
%
Delta-T
°C
Wind Press
QNH
hPa
Press
MSL
hPa
Rain since
9am
mm
Dir  Spd
km/h
Gust
km/h
Spd
kts
Gust
kts
20/11:30pm 21.8 20.8 9.0 44 6.8 NNW 4 - 2 - 1016.4 1016.3 0.0
20/11:00pm 21.8 20.7 8.3 42 7.1 N 4 - 2 - 1016.2 1016.1 0.0
20/10:30pm 22.2 21.3 9.4 44 6.9 NE 4 - 2 - 1015.9 1015.8 0.0
20/10:00pm 22.4 20.9 9.2 43 7.1 N 7 - 4 - 1015.7 1015.6 0.0
20/09:30pm 22.6 21.7 9.4 43 7.1 NE 4 - 2 - 1015.1 1015.0 0.0
20/09:00pm 23.0 21.2 7.9 38 7.9 NE 7 - 4 - 1014.5 1014.4 0.0
20/08:30pm 23.1 20.6 8.4 39 7.8 ENE 11 - 6 - 1013.8 1013.7 0.0
20/08:00pm 23.4 20.7 7.5 36 8.3 ENE 11 - 6 - 1013.2 1013.1 0.0
20/07:30pm 23.7 20.5 6.9 34 8.7 ENE 13 - 7 - 1012.4 1012.3 0.0
20/07:00pm 23.9 20.7 6.7 33 8.9 E 13 - 7 - 1011.7 1011.6 0.0
20/06:30pm 24.2 20.1 6.0 31 9.3 E 17 - 9 - 1011.3 1011.2 0.0
20/06:00pm 24.7 19.8 5.0 28 9.9 E 20 - 11 - 1010.8 1010.6 0.0
20/05:30pm 24.8 20.1 5.1 28 10.0 E 19 - 10 - 1010.5 1010.3 0.0
20/05:00pm 25.2 20.6 5.4 28 10.1 E 19 - 10 - 1010.3 1010.1 0.0
20/04:30pm 25.6 20.0 5.2 27 10.4 ENE 24 - 13 - 1010.0 1009.8 0.0
20/04:00pm 28.1 22.2 -1.9 14 13.7 NNE 19 - 10 - 1009.9 1009.7 0.0
20/03:30pm 27.6 22.3 -3.3 13 13.7 W 15 - 8 - 1009.8 1009.6 0.0
20/03:00pm 27.5 22.1 1.1 18 12.7 WNW 19 - 10 - 1009.8 1009.6 0.0
20/02:30pm 27.7 23.1 -1.3 15 13.3 WNW 13 - 7 - 1010.0 1009.8 0.0
20/02:00pm 26.9 21.9 -1.0 16 12.8 WSW 15 - 8 - 1010.2 1010.0 0.0
20/01:30pm 25.7 20.7 1.1 20 11.6 W 17 - 9 - 1010.3 1010.1 0.0
20/01:00pm 25.1 19.2 -2.5 16 12.2 W 19 - 10 - 1010.7 1010.5 0.0
20/12:30pm 24.9 19.2 0.4 20 11.4 W 20 - 11 - 1010.9 1010.7 0.0
20/12:00pm 24.2 18.8 -1.6 18 11.5 W 17 - 9 - 1010.9 1010.7 0.0
20/11:30am 23.3 16.2 1.6 24 10.2 W 28 - 15 - 1010.8 1010.6 0.0
20/11:00am 22.4 15.4 2.0 26 9.6 W 28 - 15 - 1010.9 1010.7 0.0
20/10:30am 21.6 13.6 1.8 27 9.2 W 33 - 18 - 1011.1 1010.9 0.0
20/10:00am 21.1 14.2 2.4 29 8.8 W 28 - 15 - 1011.1 1010.9 0.0
20/09:30am 20.5 12.6 2.3 30 8.5 W 33 - 18 - 1010.8 1010.6 0.0
20/09:00am 19.9 11.7 2.7 32 8.0 W 35 - 19 - 1010.7 1010.5 0.6
20/08:30am 19.4 12.7 3.6 35 7.5 W 28 - 15 - 1010.9 1010.7 0.6
20/08:00am 18.8 14.3 4.2 38 7.0 W 17 - 9 - 1010.9 1010.7 0.6
20/07:30am 18.1 12.7 4.7 41 6.4 W 22 - 12 - 1010.5 1010.3 0.6
20/07:00am 17.5 13.1 4.8 43 6.1 W 17 - 9 - 1010.3 1010.1 0.6
20/06:30am 17.6 12.7 3.9 40 6.4 WSW 19 - 10 - 1010.1 1009.9 0.6
20/06:00am 18.0 14.3 2.3 35 7.2 WSW 11 - 6 - 1009.7 1009.5 0.6
20/05:30am 18.1 14.7 2.0 34 7.3 WSW 9 - 5 - 1009.4 1009.2 0.6
20/05:00am 18.7 13.9 2.5 34 7.5 WSW 17 - 9 - 1009.0 1008.8 0.6
20/04:30am 18.7 13.8 2.1 33 7.6 WSW 17 - 9 - 1008.6 1008.4 0.6
20/04:00am 18.9 14.0 2.3 33 7.6 WSW 17 - 9 - 1008.3 1008.1 0.6
20/03:30am 19.3 14.1 2.2 32 7.9 WSW 19 - 10 - 1007.9 1007.7 0.6
20/03:00am 19.6 15.3 3.3 34 7.7 SW 15 - 8 - 1007.3 1007.1 0.6
20/02:30am 19.6 16.1 5.6 40 6.9 WSW 13 - 7 - 1007.2 1007.0 0.6
20/02:00am 19.5 16.2 9.4 52 5.4 W 17 - 9 - 1007.0 1006.8 0.6
20/01:30am 19.4 17.8 12.9 66 3.7 W 13 - 7 - 1007.0 1006.8 0.6
20/01:00am 19.5 18.0 13.2 67 3.6 W 13 - 7 - 1007.1 1006.9 0.6
20/12:30am 19.8 17.9 13.0 65 3.9 W 15 - 8 - 1007.0 1006.8 0.6
20/12:00am 20.2 17.7 12.2 60 4.5 W 17 - 9 - 1007.0 1006.8 0.6

Other Formats:

Comma delimited format used in spreadsheet applications
http://www.bom.gov.au/fwo/IDN60801/IDN60801.94768.axf

JavaScript Object Notation format (JSON) in row-major order
http://www.bom.gov.au/fwo/IDN60801/IDN60801.94768.json